sensor_id;sensor_type;location;lat;lon;timestamp;P1;durP1;ratioP1;P2;durP2;ratioP2
80557;SDS011;69901;43.524;-5.636;2024-02-04T00:01:18;27.77;;;22.27;;
80557;SDS011;69901;43.524;-5.636;2024-02-04T00:03:44;27.17;;;21.70;;
80557;SDS011;69901;43.524;-5.636;2024-02-04T00:06:09;27.05;;;21.30;;
80557;SDS011;69901;43.524;-5.636;2024-02-04T00:08:35;28.77;;;22.08;;
80557;SDS011;69901;43.524;-5.636;2024-02-04T00:11:01;28.33;;;22.53;;
80557;SDS011;69901;43.524;-5.636;2024-02-04T00:13:29;24.95;;;21.63;;
80557;SDS011;69901;43.524;-5.636;2024-02-04T00:15:55;26.63;;;20.50;;
80557;SDS011;69901;43.524;-5.636;2024-02-04T00:18:23;25.40;;;19.90;;
80557;SDS011;69901;43.524;-5.636;2024-02-04T00:20:49;24.63;;;20.05;;
80557;SDS011;69901;43.524;-5.636;2024-02-04T00:23:14;25.73;;;20.50;;
80557;SDS011;69901;43.524;-5.636;2024-02-04T00:25:40;21.87;;;18.33;;
80557;SDS011;69901;43.524;-5.636;2024-02-04T00:28:06;24.08;;;19.23;;
80557;SDS011;69901;43.524;-5.636;2024-02-04T00:30:33;23.85;;;20.08;;
80557;SDS011;69901;43.524;-5.636;2024-02-04T00:32:58;24.60;;;20.43;;
80557;SDS011;69901;43.524;-5.636;2024-02-04T00:35:28;24.02;;;19.95;;
80557;SDS011;69901;43.524;-5.636;2024-02-04T00:37:53;23.60;;;20.52;;
80557;SDS011;69901;43.524;-5.636;2024-02-04T00:40:19;26.70;;;19.43;;
80557;SDS011;69901;43.524;-5.636;2024-02-04T00:42:45;25.25;;;19.60;;
80557;SDS011;69901;43.524;-5.636;2024-02-04T00:45:10;26.40;;;20.03;;
80557;SDS011;69901;43.524;-5.636;2024-02-04T00:47:36;23.23;;;19.70;;
80557;SDS011;69901;43.524;-5.636;2024-02-04T00:50:01;29.77;;;22.20;;
80557;SDS011;69901;43.524;-5.636;2024-02-04T00:52:27;24.93;;;19.90;;
80557;SDS011;69901;43.524;-5.636;2024-02-04T00:54:53;23.87;;;19.77;;
80557;SDS011;69901;43.524;-5.636;2024-02-04T00:57:18;24.77;;;19.40;;
80557;SDS011;69901;43.524;-5.636;2024-02-04T00:59:44;22.63;;;19.47;;
80557;SDS011;69901;43.524;-5.636;2024-02-04T01:02:09;23.92;;;19.27;;
80557;SDS011;69901;43.524;-5.636;2024-02-04T01:04:35;21.90;;;19.60;;
80557;SDS011;69901;43.524;-5.636;2024-02-04T01:07:00;25.77;;;20.93;;
80557;SDS011;69901;43.524;-5.636;2024-02-04T01:09:26;20.67;;;18.23;;
80557;SDS011;69901;43.524;-5.636;2024-02-04T01:11:52;23.35;;;20.75;;
80557;SDS011;69901;43.524;-5.636;2024-02-04T01:14:18;23.00;;;19.50;;
80557;SDS011;69901;43.524;-5.636;2024-02-04T01:16:43;22.70;;;18.88;;
80557;SDS011;69901;43.524;-5.636;2024-02-04T01:19:09;22.10;;;18.17;;
80557;SDS011;69901;43.524;-5.636;2024-02-04T01:21:34;24.17;;;19.83;;
80557;SDS011;69901;43.524;-5.636;2024-02-04T01:24:00;21.73;;;18.75;;
80557;SDS011;69901;43.524;-5.636;2024-02-04T01:26:25;22.87;;;19.20;;
80557;SDS011;69901;43.524;-5.636;2024-02-04T01:28:50;24.07;;;18.10;;
80557;SDS011;69901;43.524;-5.636;2024-02-04T01:31:16;21.70;;;18.20;;
80557;SDS011;69901;43.524;-5.636;2024-02-04T01:33:42;24.13;;;19.70;;
80557;SDS011;69901;43.524;-5.636;2024-02-04T01:36:07;21.00;;;18.10;;
80557;SDS011;69901;43.524;-5.636;2024-02-04T01:38:33;22.37;;;17.93;;
80557;SDS011;69901;43.524;-5.636;2024-02-04T01:40:58;22.47;;;17.83;;
80557;SDS011;69901;43.524;-5.636;2024-02-04T01:43:24;20.03;;;17.87;;
80557;SDS011;69901;43.524;-5.636;2024-02-04T01:45:52;21.80;;;19.20;;
80557;SDS011;69901;43.524;-5.636;2024-02-04T01:48:18;23.70;;;18.50;;
80557;SDS011;69901;43.524;-5.636;2024-02-04T01:50:45;23.40;;;18.88;;
80557;SDS011;69901;43.524;-5.636;2024-02-04T01:53:12;22.70;;;18.97;;
80557;SDS011;69901;43.524;-5.636;2024-02-04T01:55:39;21.58;;;17.80;;
80557;SDS011;69901;43.524;-5.636;2024-02-04T01:58:05;25.23;;;20.10;;
80557;SDS011;69901;43.524;-5.636;2024-02-04T02:00:31;22.17;;;17.23;;
80557;SDS011;69901;43.524;-5.636;2024-02-04T02:02:57;22.42;;;18.17;;
80557;SDS011;69901;43.524;-5.636;2024-02-04T02:05:25;24.33;;;19.00;;
80557;SDS011;69901;43.524;-5.636;2024-02-04T02:07:50;22.40;;;17.10;;
80557;SDS011;69901;43.524;-5.636;2024-02-04T02:10:16;22.27;;;18.57;;
80557;SDS011;69901;43.524;-5.636;2024-02-04T02:12:49;20.85;;;18.08;;
80557;SDS011;69901;43.524;-5.636;2024-02-04T02:15:20;20.38;;;16.73;;
80557;SDS011;69901;43.524;-5.636;2024-02-04T02:17:54;19.85;;;16.88;;
80557;SDS011;69901;43.524;-5.636;2024-02-04T02:23:22;24.98;;;18.27;;
80557;SDS011;69901;43.524;-5.636;2024-02-04T02:25:54;22.35;;;19.80;;
80557;SDS011;69901;43.524;-5.636;2024-02-04T02:28:21;24.65;;;19.02;;
80557;SDS011;69901;43.524;-5.636;2024-02-04T02:30:47;22.57;;;18.47;;
80557;SDS011;69901;43.524;-5.636;2024-02-04T02:33:12;24.60;;;19.10;;
80557;SDS011;69901;43.524;-5.636;2024-02-04T02:35:38;24.98;;;19.92;;
80557;SDS011;69901;43.524;-5.636;2024-02-04T02:40:59;23.88;;;19.15;;
80557;SDS011;69901;43.524;-5.636;2024-02-04T02:43:29;19.70;;;17.35;;
80557;SDS011;69901;43.524;-5.636;2024-02-04T02:45:55;20.95;;;17.08;;
80557;SDS011;69901;43.524;-5.636;2024-02-04T02:48:22;19.75;;;16.90;;
80557;SDS011;69901;43.524;-5.636;2024-02-04T02:50:49;21.20;;;16.77;;
80557;SDS011;69901;43.524;-5.636;2024-02-04T02:53:14;19.73;;;17.20;;
80557;SDS011;69901;43.524;-5.636;2024-02-04T02:55:40;20.43;;;17.30;;
80557;SDS011;69901;43.524;-5.636;2024-02-04T02:58:06;20.45;;;18.35;;
80557;SDS011;69901;43.524;-5.636;2024-02-04T03:00:32;20.80;;;18.02;;
80557;SDS011;69901;43.524;-5.636;2024-02-04T03:02:58;20.83;;;17.60;;
80557;SDS011;69901;43.524;-5.636;2024-02-04T03:05:23;20.70;;;17.67;;
80557;SDS011;69901;43.524;-5.636;2024-02-04T03:07:49;22.27;;;18.15;;
80557;SDS011;69901;43.524;-5.636;2024-02-04T03:10:14;20.40;;;17.93;;
80557;SDS011;69901;43.524;-5.636;2024-02-04T03:12:40;20.97;;;17.53;;
80557;SDS011;69901;43.524;-5.636;2024-02-04T03:15:06;20.58;;;17.83;;
80557;SDS011;69901;43.524;-5.636;2024-02-04T03:17:31;20.07;;;17.00;;
80557;SDS011;69901;43.524;-5.636;2024-02-04T03:19:57;23.40;;;18.10;;
80557;SDS011;69901;43.524;-5.636;2024-02-04T03:22:22;21.40;;;18.40;;
80557;SDS011;69901;43.524;-5.636;2024-02-04T03:24:48;21.63;;;18.10;;
80557;SDS011;69901;43.524;-5.636;2024-02-04T03:27:14;22.75;;;18.25;;
80557;SDS011;69901;43.524;-5.636;2024-02-04T03:29:40;21.08;;;17.63;;
80557;SDS011;69901;43.524;-5.636;2024-02-04T03:32:05;22.07;;;18.60;;
80557;SDS011;69901;43.524;-5.636;2024-02-04T03:34:31;21.30;;;18.20;;
80557;SDS011;69901;43.524;-5.636;2024-02-04T03:36:56;18.97;;;17.03;;
80557;SDS011;69901;43.524;-5.636;2024-02-04T03:39:22;21.03;;;17.67;;
80557;SDS011;69901;43.524;-5.636;2024-02-04T03:41:47;22.13;;;19.07;;
80557;SDS011;69901;43.524;-5.636;2024-02-04T03:44:13;19.87;;;16.57;;
80557;SDS011;69901;43.524;-5.636;2024-02-04T03:46:38;19.23;;;16.43;;
80557;SDS011;69901;43.524;-5.636;2024-02-04T03:49:06;21.88;;;17.55;;
80557;SDS011;69901;43.524;-5.636;2024-02-04T03:51:32;22.90;;;17.40;;
80557;SDS011;69901;43.524;-5.636;2024-02-04T03:53:58;20.77;;;17.70;;
80557;SDS011;69901;43.524;-5.636;2024-02-04T03:56:23;23.10;;;17.57;;
80557;SDS011;69901;43.524;-5.636;2024-02-04T03:58:49;22.35;;;17.88;;
80557;SDS011;69901;43.524;-5.636;2024-02-04T04:01:15;22.93;;;18.10;;
80557;SDS011;69901;43.524;-5.636;2024-02-04T04:03:44;20.70;;;17.45;;
80557;SDS011;69901;43.524;-5.636;2024-02-04T04:06:10;22.30;;;18.77;;
80557;SDS011;69901;43.524;-5.636;2024-02-04T04:08:36;23.15;;;18.58;;
80557;SDS011;69901;43.524;-5.636;2024-02-04T04:11:02;22.10;;;18.00;;
80557;SDS011;69901;43.524;-5.636;2024-02-04T04:13:28;24.20;;;16.77;;
80557;SDS011;69901;43.524;-5.636;2024-02-04T04:15:54;24.65;;;18.85;;
80557;SDS011;69901;43.524;-5.636;2024-02-04T04:18:19;24.87;;;19.27;;
80557;SDS011;69901;43.524;-5.636;2024-02-04T04:20:45;20.37;;;18.00;;
80557;SDS011;69901;43.524;-5.636;2024-02-04T04:23:11;23.98;;;19.33;;
80557;SDS011;69901;43.524;-5.636;2024-02-04T04:25:37;20.75;;;16.90;;
80557;SDS011;69901;43.524;-5.636;2024-02-04T04:28:02;21.57;;;17.00;;
80557;SDS011;69901;43.524;-5.636;2024-02-04T04:30:28;20.60;;;17.37;;
80557;SDS011;69901;43.524;-5.636;2024-02-04T04:32:53;23.43;;;18.20;;
80557;SDS011;69901;43.524;-5.636;2024-02-04T04:35:19;22.27;;;17.80;;
80557;SDS011;69901;43.524;-5.636;2024-02-04T04:37:44;24.37;;;18.23;;
80557;SDS011;69901;43.524;-5.636;2024-02-04T04:40:10;25.37;;;20.33;;
80557;SDS011;69901;43.524;-5.636;2024-02-04T04:42:35;23.93;;;19.63;;
80557;SDS011;69901;43.524;-5.636;2024-02-04T04:45:01;26.57;;;19.03;;
80557;SDS011;69901;43.524;-5.636;2024-02-04T04:47:26;23.53;;;18.70;;
80557;SDS011;69901;43.524;-5.636;2024-02-04T04:49:52;28.83;;;18.92;;
80557;SDS011;69901;43.524;-5.636;2024-02-04T04:52:17;26.13;;;20.23;;
80557;SDS011;69901;43.524;-5.636;2024-02-04T04:54:43;31.90;;;22.40;;
80557;SDS011;69901;43.524;-5.636;2024-02-04T04:57:08;21.63;;;18.27;;
80557;SDS011;69901;43.524;-5.636;2024-02-04T04:59:34;24.23;;;18.27;;
80557;SDS011;69901;43.524;-5.636;2024-02-04T05:02:01;24.88;;;18.40;;
80557;SDS011;69901;43.524;-5.636;2024-02-04T05:04:26;25.83;;;18.77;;
80557;SDS011;69901;43.524;-5.636;2024-02-04T05:06:52;28.10;;;19.33;;
80557;SDS011;69901;43.524;-5.636;2024-02-04T05:09:17;25.27;;;18.27;;
80557;SDS011;69901;43.524;-5.636;2024-02-04T05:11:43;29.55;;;19.30;;
80557;SDS011;69901;43.524;-5.636;2024-02-04T05:14:08;28.10;;;19.00;;
80557;SDS011;69901;43.524;-5.636;2024-02-04T05:16:34;26.37;;;18.23;;
80557;SDS011;69901;43.524;-5.636;2024-02-04T05:19:01;24.67;;;18.77;;
80557;SDS011;69901;43.524;-5.636;2024-02-04T05:21:27;23.63;;;19.05;;
80557;SDS011;69901;43.524;-5.636;2024-02-04T05:23:52;24.77;;;17.90;;
80557;SDS011;69901;43.524;-5.636;2024-02-04T05:26:18;24.15;;;18.05;;
80557;SDS011;69901;43.524;-5.636;2024-02-04T05:28:46;21.27;;;16.30;;
80557;SDS011;69901;43.524;-5.636;2024-02-04T05:31:12;20.10;;;15.75;;
80557;SDS011;69901;43.524;-5.636;2024-02-04T05:33:37;21.60;;;17.13;;
80557;SDS011;69901;43.524;-5.636;2024-02-04T05:36:03;22.77;;;18.30;;
80557;SDS011;69901;43.524;-5.636;2024-02-04T05:38:28;20.92;;;18.40;;
80557;SDS011;69901;43.524;-5.636;2024-02-04T05:40:54;25.60;;;19.03;;
80557;SDS011;69901;43.524;-5.636;2024-02-04T05:43:20;22.88;;;17.90;;
80557;SDS011;69901;43.524;-5.636;2024-02-04T05:45:46;24.17;;;19.50;;
80557;SDS011;69901;43.524;-5.636;2024-02-04T05:48:11;22.17;;;17.90;;
80557;SDS011;69901;43.524;-5.636;2024-02-04T05:50:37;23.87;;;18.33;;
80557;SDS011;69901;43.524;-5.636;2024-02-04T05:53:02;21.70;;;17.20;;
80557;SDS011;69901;43.524;-5.636;2024-02-04T05:55:28;22.75;;;18.00;;
80557;SDS011;69901;43.524;-5.636;2024-02-04T05:57:54;22.38;;;17.73;;
80557;SDS011;69901;43.524;-5.636;2024-02-04T06:00:20;22.80;;;18.77;;
80557;SDS011;69901;43.524;-5.636;2024-02-04T06:02:45;23.00;;;17.52;;
80557;SDS011;69901;43.524;-5.636;2024-02-04T06:05:11;24.03;;;17.90;;
80557;SDS011;69901;43.524;-5.636;2024-02-04T06:07:38;22.42;;;18.33;;
80557;SDS011;69901;43.524;-5.636;2024-02-04T06:10:04;23.27;;;18.07;;
80557;SDS011;69901;43.524;-5.636;2024-02-04T06:12:30;21.17;;;17.17;;
80557;SDS011;69901;43.524;-5.636;2024-02-04T06:14:56;23.33;;;18.80;;
80557;SDS011;69901;43.524;-5.636;2024-02-04T06:17:21;21.20;;;17.23;;
80557;SDS011;69901;43.524;-5.636;2024-02-04T06:19:47;26.97;;;19.67;;
80557;SDS011;69901;43.524;-5.636;2024-02-04T06:22:13;22.90;;;18.63;;
80557;SDS011;69901;43.524;-5.636;2024-02-04T06:24:40;23.83;;;17.10;;
80557;SDS011;69901;43.524;-5.636;2024-02-04T06:27:06;25.38;;;17.67;;
80557;SDS011;69901;43.524;-5.636;2024-02-04T06:29:33;40.97;;;19.02;;
80557;SDS011;69901;43.524;-5.636;2024-02-04T06:31:58;29.77;;;17.80;;
80557;SDS011;69901;43.524;-5.636;2024-02-04T06:34:24;45.72;;;20.08;;
80557;SDS011;69901;43.524;-5.636;2024-02-04T06:36:50;43.03;;;20.07;;
80557;SDS011;69901;43.524;-5.636;2024-02-04T06:39:15;36.67;;;19.17;;
80557;SDS011;69901;43.524;-5.636;2024-02-04T06:41:41;38.45;;;19.50;;
80557;SDS011;69901;43.524;-5.636;2024-02-04T06:44:07;39.13;;;18.80;;
80557;SDS011;69901;43.524;-5.636;2024-02-04T06:46:32;26.33;;;18.03;;
80557;SDS011;69901;43.524;-5.636;2024-02-04T06:48:58;23.87;;;17.53;;
80557;SDS011;69901;43.524;-5.636;2024-02-04T06:51:24;24.25;;;18.05;;
80557;SDS011;69901;43.524;-5.636;2024-02-04T06:53:49;21.33;;;16.77;;
80557;SDS011;69901;43.524;-5.636;2024-02-04T06:56:14;22.13;;;17.10;;
80557;SDS011;69901;43.524;-5.636;2024-02-04T06:58:40;22.07;;;18.27;;
80557;SDS011;69901;43.524;-5.636;2024-02-04T07:01:06;21.67;;;16.70;;
80557;SDS011;69901;43.524;-5.636;2024-02-04T07:03:32;21.73;;;16.77;;
80557;SDS011;69901;43.524;-5.636;2024-02-04T07:05:58;20.00;;;16.60;;
80557;SDS011;69901;43.524;-5.636;2024-02-04T07:08:24;20.40;;;17.45;;
80557;SDS011;69901;43.524;-5.636;2024-02-04T07:10:50;19.85;;;17.67;;
80557;SDS011;69901;43.524;-5.636;2024-02-04T07:13:15;21.70;;;18.47;;
80557;SDS011;69901;43.524;-5.636;2024-02-04T07:15:41;21.48;;;17.38;;
80557;SDS011;69901;43.524;-5.636;2024-02-04T07:18:06;22.47;;;17.87;;
80557;SDS011;69901;43.524;-5.636;2024-02-04T07:20:32;23.38;;;18.77;;
80557;SDS011;69901;43.524;-5.636;2024-02-04T07:22:58;22.93;;;18.20;;
80557;SDS011;69901;43.524;-5.636;2024-02-04T07:25:24;22.98;;;19.20;;
80557;SDS011;69901;43.524;-5.636;2024-02-04T07:27:49;23.60;;;18.17;;
80557;SDS011;69901;43.524;-5.636;2024-02-04T07:30:15;22.27;;;17.90;;
80557;SDS011;69901;43.524;-5.636;2024-02-04T07:32:40;24.35;;;19.85;;
80557;SDS011;69901;43.524;-5.636;2024-02-04T07:35:06;27.33;;;22.47;;
80557;SDS011;69901;43.524;-5.636;2024-02-04T07:37:33;28.45;;;22.90;;
80557;SDS011;69901;43.524;-5.636;2024-02-04T07:40:00;26.92;;;22.20;;
80557;SDS011;69901;43.524;-5.636;2024-02-04T07:42:26;23.48;;;20.48;;
80557;SDS011;69901;43.524;-5.636;2024-02-04T07:44:52;23.57;;;17.93;;
80557;SDS011;69901;43.524;-5.636;2024-02-04T07:47:18;22.92;;;18.45;;
80557;SDS011;69901;43.524;-5.636;2024-02-04T07:49:46;23.02;;;18.02;;
80557;SDS011;69901;43.524;-5.636;2024-02-04T07:52:15;28.80;;;20.65;;
80557;SDS011;69901;43.524;-5.636;2024-02-04T07:54:41;32.63;;;23.93;;
80557;SDS011;69901;43.524;-5.636;2024-02-04T07:57:09;40.35;;;26.85;;
80557;SDS011;69901;43.524;-5.636;2024-02-04T07:59:34;39.50;;;29.08;;
80557;SDS011;69901;43.524;-5.636;2024-02-04T08:02:01;38.78;;;28.33;;
80557;SDS011;69901;43.524;-5.636;2024-02-04T08:04:26;35.97;;;26.93;;
80557;SDS011;69901;43.524;-5.636;2024-02-04T08:06:52;38.28;;;27.50;;
80557;SDS011;69901;43.524;-5.636;2024-02-04T08:09:18;33.33;;;23.77;;
80557;SDS011;69901;43.524;-5.636;2024-02-04T08:11:43;42.88;;;27.67;;
80557;SDS011;69901;43.524;-5.636;2024-02-04T08:14:09;41.83;;;25.87;;
80557;SDS011;69901;43.524;-5.636;2024-02-04T08:16:34;36.70;;;23.67;;
80557;SDS011;69901;43.524;-5.636;2024-02-04T08:19:00;30.30;;;23.58;;
80557;SDS011;69901;43.524;-5.636;2024-02-04T08:21:25;47.10;;;22.60;;
80557;SDS011;69901;43.524;-5.636;2024-02-04T08:23:51;38.78;;;22.63;;
80557;SDS011;69901;43.524;-5.636;2024-02-04T08:26:17;27.27;;;20.63;;
80557;SDS011;69901;43.524;-5.636;2024-02-04T08:28:42;32.67;;;21.10;;
80557;SDS011;69901;43.524;-5.636;2024-02-04T08:31:08;33.10;;;20.80;;
80557;SDS011;69901;43.524;-5.636;2024-02-04T08:33:33;29.47;;;21.77;;
80557;SDS011;69901;43.524;-5.636;2024-02-04T08:35:59;28.27;;;21.33;;
80557;SDS011;69901;43.524;-5.636;2024-02-04T08:38:25;31.73;;;21.10;;
80557;SDS011;69901;43.524;-5.636;2024-02-04T08:40:50;24.70;;;20.13;;
80557;SDS011;69901;43.524;-5.636;2024-02-04T08:43:15;39.20;;;22.27;;
80557;SDS011;69901;43.524;-5.636;2024-02-04T08:45:41;34.13;;;21.52;;
80557;SDS011;69901;43.524;-5.636;2024-02-04T08:48:07;26.58;;;21.05;;
80557;SDS011;69901;43.524;-5.636;2024-02-04T08:50:32;26.00;;;20.43;;
80557;SDS011;69901;43.524;-5.636;2024-02-04T08:52:58;22.30;;;19.90;;
80557;SDS011;69901;43.524;-5.636;2024-02-04T08:55:23;24.07;;;19.93;;
80557;SDS011;69901;43.524;-5.636;2024-02-04T08:57:49;20.48;;;17.88;;
80557;SDS011;69901;43.524;-5.636;2024-02-04T09:00:15;21.50;;;18.87;;
80557;SDS011;69901;43.524;-5.636;2024-02-04T09:02:41;21.65;;;19.20;;
80557;SDS011;69901;43.524;-5.636;2024-02-04T09:05:06;21.50;;;18.43;;
80557;SDS011;69901;43.524;-5.636;2024-02-04T09:07:32;21.63;;;19.25;;
80557;SDS011;69901;43.524;-5.636;2024-02-04T09:09:58;22.43;;;19.07;;
80557;SDS011;69901;43.524;-5.636;2024-02-04T09:12:23;22.87;;;20.33;;
80557;SDS011;69901;43.524;-5.636;2024-02-04T09:14:49;23.03;;;19.13;;
80557;SDS011;69901;43.524;-5.636;2024-02-04T09:17:14;22.47;;;20.07;;
80557;SDS011;69901;43.524;-5.636;2024-02-04T09:19:40;21.85;;;19.35;;
80557;SDS011;69901;43.524;-5.636;2024-02-04T09:22:05;23.33;;;20.93;;
80557;SDS011;69901;43.524;-5.636;2024-02-04T09:24:31;23.33;;;21.03;;
80557;SDS011;69901;43.524;-5.636;2024-02-04T09:26:56;24.58;;;21.25;;
80557;SDS011;69901;43.524;-5.636;2024-02-04T09:29:22;23.97;;;21.47;;
80557;SDS011;69901;43.524;-5.636;2024-02-04T09:31:47;23.97;;;21.40;;
80557;SDS011;69901;43.524;-5.636;2024-02-04T09:34:15;25.92;;;22.15;;
80557;SDS011;69901;43.524;-5.636;2024-02-04T09:36:40;24.23;;;21.63;;
80557;SDS011;69901;43.524;-5.636;2024-02-04T09:39:06;26.07;;;21.97;;
80557;SDS011;69901;43.524;-5.636;2024-02-04T09:41:31;28.37;;;23.23;;
80557;SDS011;69901;43.524;-5.636;2024-02-04T09:43:57;28.70;;;23.70;;
80557;SDS011;69901;43.524;-5.636;2024-02-04T09:46:24;27.20;;;23.30;;
80557;SDS011;69901;43.524;-5.636;2024-02-04T09:48:50;25.73;;;22.92;;
80557;SDS011;69901;43.524;-5.636;2024-02-04T09:51:17;28.10;;;24.20;;
80557;SDS011;69901;43.524;-5.636;2024-02-04T09:53:45;27.43;;;23.70;;
80557;SDS011;69901;43.524;-5.636;2024-02-04T09:56:17;27.67;;;23.00;;
80557;SDS011;69901;43.524;-5.636;2024-02-04T09:58:43;28.95;;;24.52;;
80557;SDS011;69901;43.524;-5.636;2024-02-04T10:01:09;24.60;;;21.95;;
80557;SDS011;69901;43.524;-5.636;2024-02-04T10:03:36;33.08;;;26.88;;
80557;SDS011;69901;43.524;-5.636;2024-02-04T10:06:02;30.70;;;25.70;;
80557;SDS011;69901;43.524;-5.636;2024-02-04T10:08:28;32.25;;;25.98;;
80557;SDS011;69901;43.524;-5.636;2024-02-04T10:10:54;28.17;;;23.17;;
80557;SDS011;69901;43.524;-5.636;2024-02-04T10:13:19;28.75;;;23.90;;
80557;SDS011;69901;43.524;-5.636;2024-02-04T10:15:46;24.23;;;21.65;;
80557;SDS011;69901;43.524;-5.636;2024-02-04T10:18:12;23.10;;;20.63;;
80557;SDS011;69901;43.524;-5.636;2024-02-04T10:20:38;24.50;;;21.90;;
80557;SDS011;69901;43.524;-5.636;2024-02-04T10:23:04;23.77;;;21.27;;
80557;SDS011;69901;43.524;-5.636;2024-02-04T10:25:29;25.33;;;21.80;;
80557;SDS011;69901;43.524;-5.636;2024-02-04T10:27:55;23.83;;;21.33;;
80557;SDS011;69901;43.524;-5.636;2024-02-04T10:30:21;27.02;;;22.98;;
80557;SDS011;69901;43.524;-5.636;2024-02-04T10:32:50;27.83;;;21.57;;
80557;SDS011;69901;43.524;-5.636;2024-02-04T10:35:16;26.10;;;21.75;;
80557;SDS011;69901;43.524;-5.636;2024-02-04T10:37:44;25.85;;;23.05;;
80557;SDS011;69901;43.524;-5.636;2024-02-04T10:40:10;25.60;;;22.15;;
80557;SDS011;69901;43.524;-5.636;2024-02-04T10:42:36;24.00;;;21.47;;
80557;SDS011;69901;43.524;-5.636;2024-02-04T10:45:04;23.55;;;20.83;;
80557;SDS011;69901;43.524;-5.636;2024-02-04T10:47:37;24.80;;;21.92;;
80557;SDS011;69901;43.524;-5.636;2024-02-04T10:50:03;26.92;;;21.42;;
80557;SDS011;69901;43.524;-5.636;2024-02-04T10:52:31;25.23;;;22.10;;
80557;SDS011;69901;43.524;-5.636;2024-02-04T10:55:02;26.13;;;22.37;;
80557;SDS011;69901;43.524;-5.636;2024-02-04T10:57:28;23.55;;;20.98;;
80557;SDS011;69901;43.524;-5.636;2024-02-04T10:59:55;23.77;;;21.23;;
80557;SDS011;69901;43.524;-5.636;2024-02-04T11:02:22;24.35;;;21.65;;
80557;SDS011;69901;43.524;-5.636;2024-02-04T11:04:49;24.98;;;22.35;;
80557;SDS011;69901;43.524;-5.636;2024-02-04T11:07:15;24.97;;;22.43;;
80557;SDS011;69901;43.524;-5.636;2024-02-04T11:09:42;24.13;;;21.73;;
80557;SDS011;69901;43.524;-5.636;2024-02-04T11:12:12;25.55;;;22.85;;
80557;SDS011;69901;43.524;-5.636;2024-02-04T11:14:41;26.23;;;22.40;;
80557;SDS011;69901;43.524;-5.636;2024-02-04T11:27:53;25.30;;;22.67;;
80557;SDS011;69901;43.524;-5.636;2024-02-04T11:30:19;25.13;;;22.70;;
80557;SDS011;69901;43.524;-5.636;2024-02-04T11:32:45;24.65;;;22.10;;
80557;SDS011;69901;43.524;-5.636;2024-02-04T11:35:11;25.75;;;22.95;;
80557;SDS011;69901;43.524;-5.636;2024-02-04T11:37:37;23.50;;;21.10;;
80557;SDS011;69901;43.524;-5.636;2024-02-04T11:40:04;25.05;;;22.38;;
80557;SDS011;69901;43.524;-5.636;2024-02-04T11:42:32;24.50;;;22.02;;
80557;SDS011;69901;43.524;-5.636;2024-02-04T11:45:11;26.65;;;23.63;;
80557;SDS011;69901;43.524;-5.636;2024-02-04T11:47:38;28.13;;;23.23;;
80557;SDS011;69901;43.524;-5.636;2024-02-04T11:50:04;24.50;;;21.90;;
80557;SDS011;69901;43.524;-5.636;2024-02-04T11:52:31;28.70;;;24.88;;
80557;SDS011;69901;43.524;-5.636;2024-02-04T11:54:56;26.80;;;23.97;;
80557;SDS011;69901;43.524;-5.636;2024-02-04T11:57:23;25.23;;;22.73;;
80557;SDS011;69901;43.524;-5.636;2024-02-04T11:59:48;26.05;;;23.02;;
80557;SDS011;69901;43.524;-5.636;2024-02-04T12:02:16;25.95;;;22.08;;
80557;SDS011;69901;43.524;-5.636;2024-02-04T12:04:42;26.43;;;23.30;;
80557;SDS011;69901;43.524;-5.636;2024-02-04T12:07:09;29.90;;;23.65;;
80557;SDS011;69901;43.524;-5.636;2024-02-04T12:09:35;28.77;;;24.27;;
80557;SDS011;69901;43.524;-5.636;2024-02-04T12:12:03;27.15;;;23.38;;
80557;SDS011;69901;43.524;-5.636;2024-02-04T12:14:29;28.85;;;24.55;;
80557;SDS011;69901;43.524;-5.636;2024-02-04T12:16:56;25.63;;;22.17;;
80557;SDS011;69901;43.524;-5.636;2024-02-04T12:19:25;27.88;;;23.67;;
80557;SDS011;69901;43.524;-5.636;2024-02-04T12:21:50;28.00;;;24.23;;
80557;SDS011;69901;43.524;-5.636;2024-02-04T12:24:16;27.57;;;23.23;;
80557;SDS011;69901;43.524;-5.636;2024-02-04T12:26:42;32.03;;;23.50;;
80557;SDS011;69901;43.524;-5.636;2024-02-04T12:29:11;31.77;;;24.77;;
80557;SDS011;69901;43.524;-5.636;2024-02-04T12:31:37;31.88;;;23.48;;
80557;SDS011;69901;43.524;-5.636;2024-02-04T12:34:02;30.90;;;23.60;;
80557;SDS011;69901;43.524;-5.636;2024-02-04T12:36:28;32.63;;;24.15;;
80557;SDS011;69901;43.524;-5.636;2024-02-04T12:38:55;31.38;;;24.63;;
80557;SDS011;69901;43.524;-5.636;2024-02-04T12:41:22;29.13;;;22.93;;
80557;SDS011;69901;43.524;-5.636;2024-02-04T12:43:52;29.88;;;24.35;;
80557;SDS011;69901;43.524;-5.636;2024-02-04T12:46:18;30.17;;;24.67;;
80557;SDS011;69901;43.524;-5.636;2024-02-04T12:48:45;29.80;;;23.08;;
80557;SDS011;69901;43.524;-5.636;2024-02-04T12:51:10;31.50;;;23.90;;
80557;SDS011;69901;43.524;-5.636;2024-02-04T12:53:36;32.97;;;23.65;;
80557;SDS011;69901;43.524;-5.636;2024-02-04T12:56:02;29.00;;;22.97;;
80557;SDS011;69901;43.524;-5.636;2024-02-04T12:58:27;24.52;;;21.60;;
80557;SDS011;69901;43.524;-5.636;2024-02-04T13:01:02;29.57;;;24.37;;
80557;SDS011;69901;43.524;-5.636;2024-02-04T13:03:30;30.20;;;23.95;;
80557;SDS011;69901;43.524;-5.636;2024-02-04T13:05:58;28.63;;;23.53;;
80557;SDS011;69901;43.524;-5.636;2024-02-04T13:08:24;30.30;;;23.43;;
80557;SDS011;69901;43.524;-5.636;2024-02-04T13:10:56;31.50;;;23.98;;
80557;SDS011;69901;43.524;-5.636;2024-02-04T13:13:22;31.73;;;23.23;;
80557;SDS011;69901;43.524;-5.636;2024-02-04T13:15:52;29.80;;;22.97;;
80557;SDS011;69901;43.524;-5.636;2024-02-04T13:18:17;30.30;;;23.67;;
80557;SDS011;69901;43.524;-5.636;2024-02-04T13:20:43;28.57;;;23.03;;
80557;SDS011;69901;43.524;-5.636;2024-02-04T13:23:10;26.17;;;22.60;;
80557;SDS011;69901;43.524;-5.636;2024-02-04T13:25:38;26.88;;;21.98;;
80557;SDS011;69901;43.524;-5.636;2024-02-04T13:28:03;32.87;;;22.80;;
80557;SDS011;69901;43.524;-5.636;2024-02-04T13:30:29;26.95;;;22.65;;
80557;SDS011;69901;43.524;-5.636;2024-02-04T13:32:54;28.67;;;22.90;;
80557;SDS011;69901;43.524;-5.636;2024-02-04T13:35:22;28.55;;;23.08;;
80557;SDS011;69901;43.524;-5.636;2024-02-04T13:37:48;25.50;;;22.60;;
80557;SDS011;69901;43.524;-5.636;2024-02-04T13:40:17;24.13;;;21.63;;
80557;SDS011;69901;43.524;-5.636;2024-02-04T13:42:44;26.10;;;23.35;;
80557;SDS011;69901;43.524;-5.636;2024-02-04T13:45:10;28.52;;;24.35;;
80557;SDS011;69901;43.524;-5.636;2024-02-04T13:47:39;25.70;;;22.70;;
80557;SDS011;69901;43.524;-5.636;2024-02-04T13:50:06;29.65;;;22.73;;
80557;SDS011;69901;43.524;-5.636;2024-02-04T13:52:33;28.33;;;23.40;;
80557;SDS011;69901;43.524;-5.636;2024-02-04T13:54:59;24.23;;;21.73;;
80557;SDS011;69901;43.524;-5.636;2024-02-04T13:57:25;25.90;;;22.23;;
80557;SDS011;69901;43.524;-5.636;2024-02-04T13:59:50;24.20;;;21.67;;
80557;SDS011;69901;43.524;-5.636;2024-02-04T14:02:16;24.17;;;21.57;;
80557;SDS011;69901;43.524;-5.636;2024-02-04T14:04:41;24.00;;;21.50;;
80557;SDS011;69901;43.524;-5.636;2024-02-04T14:07:07;27.17;;;21.90;;
80557;SDS011;69901;43.524;-5.636;2024-02-04T14:09:34;24.55;;;22.15;;
80557;SDS011;69901;43.524;-5.636;2024-02-04T14:11:59;25.03;;;22.47;;
80557;SDS011;69901;43.524;-5.636;2024-02-04T14:14:25;25.30;;;22.10;;
80557;SDS011;69901;43.524;-5.636;2024-02-04T14:16:50;24.17;;;20.85;;
80557;SDS011;69901;43.524;-5.636;2024-02-04T14:19:16;25.83;;;22.47;;